N60CM KBUF-
Flight info
| Callsign | N60CM |
|---|---|
| Flight time | N/A |
| Altitude | VFR/030 |
| Route | VFR |
| Aircraft | S60/L-DOV/C |
Departure
| Time | 2026-05-08 02:22 |
|---|---|
| Airport | Buffalo Niagara International Airport (KBUF) |
Arrival
| Time | N/A |
|---|---|
| Airport | - |
| Time | Latitude | Longitude | Altitude | Speed | Heading |
|---|---|---|---|---|---|
| 2026-05-08 02:11 | 42.94717 | -78.73531 | 717 ft | 0 kts | 209° |
| 2026-05-08 02:13 | 42.94717 | -78.73538 | 730 ft | 7 kts | 219° |
| 2026-05-08 02:14 | 42.94888 | -78.73769 | 913 ft | 63 kts | 321° |
| 2026-05-08 02:14 | 42.95370 | -78.74259 | 1013 ft | 107 kts | 324° |
| 2026-05-08 02:14 | 42.96049 | -78.74899 | 1013 ft | 126 kts | 324° |
| 2026-05-08 02:14 | 42.96817 | -78.75544 | 1095 ft | 133 kts | 328° |
| 2026-05-08 02:15 | 42.97689 | -78.76113 | 982 ft | 144 kts | 333° |
| 2026-05-08 02:15 | 42.98625 | -78.76602 | 855 ft | 143 kts | 338° |
| 2026-05-08 02:15 | 42.99536 | -78.77081 | 845 ft | 137 kts | 335° |
| 2026-05-08 02:15 | 43.00395 | -78.77638 | 892 ft | 137 kts | 334° |
| 2026-05-08 02:16 | 43.01270 | -78.78144 | 939 ft | 136 kts | 334° |
| 2026-05-08 02:16 | 43.02049 | -78.78796 | 1025 ft | 129 kts | 314° |
| 2026-05-08 02:16 | 43.02584 | -78.79834 | 983 ft | 137 kts | 297° |
| 2026-05-08 02:16 | 43.02970 | -78.81032 | 896 ft | 139 kts | 292° |
| 2026-05-08 02:17 | 43.03358 | -78.82231 | 878 ft | 137 kts | 296° |
| 2026-05-08 02:17 | 43.03795 | -78.83361 | 935 ft | 136 kts | 298° |
| 2026-05-08 02:17 | 43.04249 | -78.84489 | 998 ft | 135 kts | 299° |
| 2026-05-08 02:17 | 43.04683 | -78.85621 | 1072 ft | 132 kts | 297° |
| 2026-05-08 02:18 | 43.05096 | -78.86786 | 1055 ft | 141 kts | 297° |
| 2026-05-08 02:18 | 43.05539 | -78.88003 | 914 ft | 140 kts | 295° |
| 2026-05-08 02:18 | 43.05877 | -78.89221 | 981 ft | 137 kts | 290° |
| 2026-05-08 02:18 | 43.06197 | -78.90448 | 986 ft | 137 kts | 289° |
| 2026-05-08 02:19 | 43.06512 | -78.91661 | 1030 ft | 134 kts | 289° |
| 2026-05-08 02:19 | 43.06623 | -78.92884 | 1062 ft | 129 kts | 253° |
| 2026-05-08 02:19 | 43.06151 | -78.93926 | 1173 ft | 131 kts | 238° |
| 2026-05-08 02:19 | 43.05569 | -78.94912 | 1202 ft | 135 kts | 230° |
| 2026-05-08 02:20 | 43.04910 | -78.95856 | 1142 ft | 138 kts | 226° |
| 2026-05-08 02:20 | 43.04190 | -78.96719 | 1122 ft | 137 kts | 221° |
| 2026-05-08 02:20 | 43.03513 | -78.97623 | 1089 ft | 134 kts | 234° |
| 2026-05-08 02:20 | 43.02952 | -78.98620 | 1176 ft | 133 kts | 236° |
| 2026-05-08 02:21 | 43.02561 | -78.99766 | 1068 ft | 135 kts | 256° |
| 2026-05-08 02:21 | 43.02344 | -79.01010 | 1081 ft | 135 kts | 258° |
| 2026-05-08 02:21 | 43.02163 | -79.02255 | 1117 ft | 131 kts | 260° |
| 2026-05-08 02:21 | 43.01810 | -79.03344 | 1262 ft | 124 kts | 236° |
| 2026-05-08 02:22 | 43.01595 | -79.04441 | 1354 ft | 119 kts | 265° |
| 2026-05-08 02:22 | 43.01526 | -79.05491 | 1749 ft | 116 kts | 266° |
| 2026-05-08 02:22 | 43.01610 | -79.06707 | 1470 ft | 138 kts | 276° |
| 2026-05-08 02:22 | 43.01804 | -79.07959 | 1036 ft | 119 kts | 299° |
| 2026-05-08 02:23 | 43.02013 | -79.08112 | 777 ft | 26 kts | 133° |
| 2026-05-08 02:23 | 43.01982 | -79.08159 | 638 ft | 28 kts | 345° |
| 2026-05-08 02:23 | 43.02029 | -79.08174 | 584 ft | 0 kts | 255° |
| 2026-05-08 02:24 | 43.02028 | -79.08173 | 584 ft | 0 kts | 259° |
| 2026-05-08 02:25 | 43.02072 | -79.08374 | 722 ft | 57 kts | 305° |
| 2026-05-08 02:25 | 43.02631 | -79.08554 | 804 ft | 96 kts | 319° |
| 2026-05-08 02:25 | 43.03228 | -79.07998 | 636 ft | 112 kts | 65° |
| 2026-05-08 02:25 | 43.03524 | -79.07073 | 682 ft | 113 kts | 66° |
| 2026-05-08 02:26 | 43.03827 | -79.05997 | 694 ft | 123 kts | 74° |
| 2026-05-08 02:26 | 43.03844 | -79.04920 | 611 ft | 104 kts | 108° |
| 2026-05-08 02:26 | 43.03688 | -79.03965 | 675 ft | 99 kts | 84° |
| 2026-05-08 02:26 | 43.03780 | -79.03028 | 721 ft | 107 kts | 78° |
| 2026-05-08 02:27 | 43.04153 | -79.02089 | 711 ft | 115 kts | 49° |
| 2026-05-08 02:27 | 43.04735 | -79.01402 | 717 ft | 103 kts | 41° |
| 2026-05-08 02:27 | 43.05175 | -79.00809 | 719 ft | 76 kts | 8° |
| 2026-05-08 02:27 | 43.05262 | -79.00728 | 799 ft | 60 kts | 315° |
| 2026-05-08 02:28 | 43.05434 | -79.00752 | 818 ft | 56 kts | 291° |
| 2026-05-08 02:28 | 43.05764 | -79.01193 | 690 ft | 69 kts | 314° |
| 2026-05-08 02:28 | 43.05867 | -79.01728 | 657 ft | 70 kts | 232° |
| 2026-05-08 02:29 | 43.06143 | -79.01758 | 712 ft | 68 kts | 99° |
| 2026-05-08 02:29 | 43.06101 | -79.01189 | 674 ft | 52 kts | 113° |
| 2026-05-08 02:29 | 43.06054 | -79.01055 | 591 ft | 3 kts | 268° |
| 2026-05-08 02:29 | 43.06051 | -79.01055 | 578 ft | 0 kts | 266° |
| 2026-05-08 02:30 | 43.05985 | -79.00985 | 726 ft | 44 kts | 131° |
| 2026-05-08 02:31 | 43.05646 | -79.00731 | 872 ft | 71 kts | 224° |
| 2026-05-08 02:31 | 43.05223 | -79.01369 | 717 ft | 101 kts | 224° |
| 2026-05-08 02:31 | 43.04768 | -79.02176 | 739 ft | 114 kts | 228° |
| 2026-05-08 02:31 | 43.04298 | -79.03077 | 713 ft | 117 kts | 231° |
| 2026-05-08 02:32 | 43.03866 | -79.04062 | 731 ft | 123 kts | 243° |
| 2026-05-08 02:32 | 43.03587 | -79.05065 | 818 ft | 108 kts | 233° |
| 2026-05-08 02:32 | 43.03307 | -79.05490 | 657 ft | 117 kts | 229° |
| 2026-05-08 02:32 | 43.03186 | -79.06510 | 668 ft | 108 kts | 261° |
| 2026-05-08 02:33 | 43.03035 | -79.07561 | 670 ft | 96 kts | 213° |
| 2026-05-08 02:33 | 43.02834 | -79.06913 | 863 ft | 120 kts | 68° |
| 2026-05-08 02:33 | 43.03342 | -79.05871 | 653 ft | 137 kts | 52° |
| 2026-05-08 02:33 | 43.03898 | -79.04817 | 709 ft | 138 kts | 51° |
| 2026-05-08 02:34 | 43.04496 | -79.03780 | 689 ft | 134 kts | 51° |
| 2026-05-08 02:34 | 43.04846 | -79.03062 | 814 ft | 125 kts | 56° |
| 2026-05-08 02:36 | 43.04987 | -79.02726 | 772 ft | 122 kts | 59° |
| 2026-05-08 02:36 | 43.05446 | -79.01839 | 623 ft | 103 kts | 51° |
| 2026-05-08 02:36 | 43.05916 | -79.01351 | 682 ft | 80 kts | 34° |
| 2026-05-08 02:36 | 43.06022 | -79.00904 | 701 ft | 31 kts | 290° |
| 2026-05-08 02:37 | 43.06054 | -79.01075 | 632 ft | 13 kts | 103° |
| 2026-05-08 02:37 | 43.06042 | -79.01053 | 578 ft | 0 kts | 113° |